CheckWX is a tool to help pilots better visualize weather data.  It is not intended as a substitute for an official pre-flight weather briefing.

18:41:45 UTC

LJCE METAR
Cerklje Airport
Slovenia
Current

42 mins ago

LJCE 201800Z 15001KT CAVOK 26/22 Q1017 RMK BLU
Observed
Aug-20 @ 18:00 UTC
Wind
  • 150° at 1 KTS
Visibility
10,000+ meters
Flight Rules
VFR
Cloud Levels
  • Clear skies
Temperature
26°C / 79°F
Dewpoint
22°C / 72°F
Humidity
79%
Altimeter
30.03" Hg
Pressure
1016.92 hPa
Previous

1 hour ago

LJCE 201730Z AUTO 16002KT 9999 NCD 28/21 Q1017
Observed
Aug-20 @ 17:30 UTC
Wind
  • 160° at 2 KTS
Visibility
10,000+ meters
Flight Rules
VFR
Cloud Levels
  • Clear skies
Temperature
28°C / 82°F
Dewpoint
21°C / 70°F
Heat Index
30°C / 86°F
Humidity
66%
Altimeter
30.03" Hg
Pressure
1016.92 hPa
Previous

2 hours ago

LJCE 201700Z AUTO 05002KT 9999 NCD 29/21 Q1017
Observed
Aug-20 @ 17:00 UTC
Wind
  • 050° at 2 KTS
Visibility
10,000+ meters
Flight Rules
VFR
Cloud Levels
  • Clear skies
Temperature
29°C / 84°F
Dewpoint
21°C / 70°F
Heat Index
31°C / 88°F
Humidity
62%
Altimeter
30.03" Hg
Pressure
1016.92 hPa